Turton, South Dakota
Current Conditions -  °F | °C
As of 6:53 AM on Thursday 30 Oct 2014 (Local Time) from KABR Reporting Station
Clear Clear  
Wind Chill: 33°   Ceiling: Unl
Heat Index: 40°   Visibility: 10mi
Dew Point: 37°   Wind: 10mph
Humidity: 89%   Direction: 320°NW
Pressure: 30.05"   Gusts: NA
Location:  45.05°N, 98.1°W
Report Text: KABR 301153Z AUTO 32009KT 10SM CLR 04/03 A3005 RMK AO2 SLP186 T00440028 10072 20000 53024
Loading
Personal Weather Stations






























Interactive Weather Map
Tropical Storm Tracking
New forecast layout! Learn more

10-Day Weather Forecast

Advertisements
Track Severe Weather on mobile